Saint Médard d'Aunis (17)                   Septembre 2012                      
  Température (°C) - Abri Young à ventilation mécanique 43502 Humidité Vent (km/h) Précipitations (mm) Pression (hPa) Divers  
Date Maxi Mini Moy de 1440 relevés Moy (tx+tn)/2 Index chaleur moyen Index chaleur maxi Froid dû au vent moy  Froid dû au vent mini/1min   Amplitude (Tx-Tn) Tx OMM/1min Tn OMM/1min Tm OMM/1min Relative maxi Relative mini Relative moy de 1440 relevés Relative moy (hx+hn)/2 Point de rosée maxi Point de rosée mini Point de rosée moy 1440 relevés Vent moy maxi (10min) Vent  moyen (24h) Direction dominante Rafales (km/h) maxi Direction rafale maxi Rafales moy (24h) Total du jour (mm) Durée en heures et dixièmes Intensité maxi sur 1 min (mm/h) Maxi Mini Moy de 1440 relevés Moy (px+pn)/2 Variation Epaisseur neige (cm) Remarques diverses  
01/09/2012 22,0 8,5 15,45 15,25 14,89 20,6 14,84 7,1 13,5 21,8 8,6 15,20 86% 39% 62,4% 62,5% 11,5 5,0 7,87 20,10 10,16 N 37,0 N 13,88 0,0 0,0 0,0 1030,5 1027,1 1028,91 1028,80 3,4   Ciel 3/8 à 6/8, 5/8 le soir  
02/09/2012 23,8 10,7 17,45 17,25 17,55 24,1 17,09 10,7 13,1 23,7 10,8 17,25 93% 57% 78,4% 75,0% 16,2 8,4 13,45 22,50 9,88 N 32,2 NNW 13,33 0,0 0,0 0,0 1028,7 1026,4 1027,65 1027,55 2,3   Ciel entre 6/8 et 8/8 le matin, 5/8 à 6/8 l'après-midi  
03/09/2012 26,3 11,4 18,48 18,85 18,56 26,1 18,01 10,6 14,9 26,2 11,4 18,80 95% 47% 73,4% 71,0% 16,0 10,7 13,20 21,22 10,91 N 35,4 NE 14,78 0,0 0,0 0,0 1027,3 1023,3 1025,37 1025,30 4,0   Ciel 1/8 le matin, 1/8 à 4/8 l'après-midi, 1/8 le soir  
04/09/2012 26,8 14,8 20,15 20,80 20,28 26,6 19,87 13,9 12,0 26,8 14,8 20,80 93% 46% 70,8% 69,5% 15,6 12,5 14,17 19,78 10,53 N 30,6 N 14,26 0,0 0,0 0,0 1024,1 1020,5 1022,41 1022,30 3,6   Ciel 5/8 à 4/8, 2/8 le soir  
05/09/2012 29,1 14,2 20,79 21,65 20,98 29,2 20,28 13,3 14,9 28,9 14,3 21,60 94% 41% 70,2% 67,5% 16,1 12,5 14,55 23,46 12,66 NNE 35,4 NNE 17,11 0,0 0,0 0,0 1024,1 1020,7 1021,94 1022,40 3,4   Ciel entre 4/8 et 6/8  
06/09/2012 27,8 14,6 20,20 21,20 19,80 27,0 19,66 13,2 13,2 27,7 14,6 21,15 89% 33% 59,1% 61,0% 15,2 7,2 11,01 19,78 12,62 NE 41,8 NNE 17,66 0,0 0,0 0,0 1025,8 1023,1 1024,40 1024,45 2,7   Ciel 0/8  
07/09/2012 31,8 10,2 20,77 21,00 20,04 30,0 20,54 9,7 21,6 31,7 10,3 21,00 81% 22% 51,3% 51,5% 13,2 6,2 9,05 17,86 9,88 NE 33,8 NE 13,78 0,0 0,0 0,0 1024,6 1020,9 1022,74 1022,75 3,7   Ciel 0/8 à 1/8  
08/09/2012 31,8 8,7 20,19 20,25 19,39 30,2 20,13 8,8 23,1 31,6 8,8 20,20 83% 25% 50,2% 54,0% 11,5 2,0 8,16 15,78 5,60 NE 25,7 WNW 7,76 0,0 0,0 0,0 1021,4 1016,4 1018,46 1018,90 5,0   Ciel 0/8  
09/09/2012 25,6 8,3 17,82 16,95 18,27 26,3 17,43 7,4 17,3 25,4 8,3 16,85 99% 64% 80,4% 81,5% 19,1 3,4 14,29 24,44 9,14 W 35,4 W 11,81 0,0 0,0 0,0 1017,9 1015,5 1016,67 1016,70 2,4   Brouillard, ciel entre 2/8 et 8/8 le matin, 4/8 l'après-midi  
10/09/2012 25,9 12,2 19,56 19,05 20,08 26,3 19,49 12,3 13,7 25,6 12,3 18,95 96% 63% 82,3% 79,5% 18,5 10,3 16,27 15,62 6,11 NW 24,1 W 8,36 0,2 0,1 12,0 1018,0 1015,5 1016,91 1016,75 2,5   Ciel entre 6/8 et 8/8 le matin, pluie faible, 7/8 à 3/8 l'après-midi  
11/09/2012 24,4 11,1 18,28 17,75 18,68 25,3 17,84 11,1 13,3 24,3 11,1 17,70 99% 62% 82,8% 80,5% 19,0 9,4 15,14 27,70 10,11 WNW 41,8 W 13,44 0,6 0,3 12,0 1020,8 1016,9 1018,66 1018,85 3,9   Ciel entre 4/8 et 6/8 le matin, entre 5/8 et 8/8 l'après-midi, averses faibles  
12/09/2012 20,1 12,6 15,72 16,35 15,39 19,1 15,25 12,5 7,5 19,9 12,6 16,25 92% 47% 71,0% 69,5% 14,0 7,5 10,28 20,42 9,77 N 30,6 W 13,05 0,0 0,0 0,0 1021,9 1019,6 1020,87 1020,75 2,3   Ciel entre 6/8 et 8/8, 4/8 en fin d'après-midi  
13/09/2012 21,7 8,2 16,25 14,95 15,85 20,3 15,44 8,3 13,5 21,6 8,3 14,95 96% 40% 69,6% 68,0% 15,1 3,4 10,00 22,83 11,94 N 37,0 NNW 16,12 1,8 0,4 24,0 1023,3 1018,3 1020,96 1020,80 5,0   Ciel 7/8 à 1/8 le matin, averses, 1/8 ensuite  
14/09/2012 22,4 4,2 14,83 13,30 14,73 21,8 14,19 4,4 18,2 22,1 4,4 13,25 92% 55% 73,5% 73,5% 14,4 2,1 9,94 25,42 9,71 NW 40,2 WNW 13,07 0,0 0,0 0,0 1023,0 1020,5 1021,85 1021,75 2,5   Ciel 0/8 à 3/8 le matin, 3/8 à 7/8 l'après-midi, 4/8 le soir  
15/09/2012 23,2 8,8 16,72 16,00 16,55 22,6 16,64 8,9 14,4 22,9 8,9 15,90 95% 48% 73,3% 71,5% 14,2 7,0 11,59 16,10 4,83 N 29,0 NW 6,88 0,0 0,0 0,0 1021,7 1017,5 1019,56 1019,60 4,2   Ciel 5/8 à 6/8 le matin, 6/8 à 1/8 l'après-midi  
16/09/2012 25,2 5,2 15,73 15,20 15,61 24,7 15,61 5,3 20,0 25,1 5,3 15,20 95% 40% 72,0% 67,5% 14,1 3,7 10,05 16,10 5,34 NW 24,1 WNW 7,46 0,0 0,0 0,0 1017,5 1013,7 1015,47 1015,60 3,8   Ciel 2/8 à 5/8 le matin, 5/8 à 7/8 l'après-midi  
17/09/2012 23,6 11,0 16,20 17,30 16,28 23,9 15,98 10,4 12,6 23,4 11,1 17,25 95% 59% 82,1% 77,0% 15,7 9,9 12,92 17,38 7,20 W 29,0 WSW 9,47 0,0 0,0 0,0 1016,5 1014,8 1015,48 1015,65 1,7   Ciel 1/8 à 4/8, voilé  
18/09/2012 21,2 12,7 16,40 16,95 16,31 20,4 15,76 11,4 8,5 21,0 12,7 16,85 95% 56% 76,3% 75,5% 14,2 8,2 11,99 18,34 11,69 N 27,4 WNW 15,58 0,0 0,0 0,0 1021,8 1014,7 1017,52 1018,25 7,1   Ciel entre 6/8 et 8/8, traces de précipitations  
19/09/2012 21,1 4,6 13,82 12,85 13,03 19,2 13,18 3,9 16,5 20,9 4,8 12,85 93% 33% 59,1% 63,0% 8,3 1,2 5,09 16,42 9,38 NNE 29,0 ENE 12,81 0,0 0,0 0,0 1025,5 1021,8 1024,07 1023,65 3,7   Ciel 4/8 à 0/8  
20/09/2012 22,7 1,8 13,41 12,25 12,40 21,1 13,01 0,9 20,9 22,6 2,0 12,30 86% 26% 52,4% 56,0% 5,5 -1,4 2,68 15,78 7,64 NE 35,4 NE 10,87 0,0 0,0 0,0 1024,5 1015,3 1019,82 1019,90 9,2   Ciel 0/8 à 4/8, voilé  
21/09/2012 22,1 8,1 15,37 15,10 15,38 22,2 15,23 8,2 14,0 21,9 8,2 15,05 92% 58% 74,2% 75,0% 16,7 1,5 10,73 15,46 6,96 NE 22,5 SSE 9,59 1,6 0,4 12,0 1015,5 1011,9 1013,79 1013,70 3,6   Ciel 4/8 à 8/8, pluie l'après-midi, 6/8 ensuite  
22/09/2012 22,6 12,4 16,99 17,50 17,12 22,8 16,82 11,6 10,2 22,5 12,4 17,45 90% 65% 79,7% 77,5% 16,1 10,7 13,33 14,18 8,19 NE 22,5 NE 11,77 0,0 0,0 0,0 1016,5 1011,0 1014,61 1013,75 5,5   Ciel 8/8 le matin à 5/8 l'après-midi  
23/09/2012 28,9 15,2 21,11 22,05 21,55 29,7 19,80 15,1 13,7 28,8 15,2 22,00 93% 45% 74,5% 69,0% 18,3 13,4 16,09 35,09 18,37 SSE 62,8 S 25,21 0,4 0,2 12,0 1011,1 996,9 1003,36 1004,00 14,2   Ciel entre 5/8 et 7/8, averses le soir  
24/09/2012 21,4 13,3 17,18 17,35 17,40 21,3 13,65 9,8 8,1 21,4 13,3 17,35 95% 62% 82,8% 78,5% 17,5 10,9 14,14 60,52 34,55 WSW 78,9 W 43,52 18,4 2,8 60,0 1008,4 996,1 1003,86 1002,25 12,3   Ciel entre 3/8 et 8/8, averses, tonnerre le soir  
25/09/2012 16,0 11,5 13,65 13,75 13,73 16,0 11,53 7,8 4,5 15,9 11,5 13,70 96% 76% 91,6% 86,0% 14,4 10,4 12,30 35,57 17,52 S 49,9 W 24,22 18,6 6,0 36,0 1002,9 997,4 999,60 1000,15 5,5   Tonnerre le matin, ciel 8/8, pluie, orage le soir  
26/09/2012 18,3 10,9 14,32 14,60 14,39 18,7 12,36 8,6 7,4 18,3 11,0 14,65 97% 75% 87,7% 86,0% 15,0 9,9 12,26 32,36 17,07 S 56,3 SSW 22,37 14,6 2,1 60,0 1007,3 997,1 1000,78 1002,20 10,2   Ciel entre 5/8 et 8/8, averses  
27/09/2012 19,6 8,9 14,95 14,25 14,95 19,6 13,49 9,0 10,7 19,6 9,0 14,30 96% 55% 81,2% 75,5% 13,8 8,1 11,60 29,63 14,43 W 40,2 WNW 18,20 1,2 0,3 24,0 1019,5 1007,2 1014,25 1013,35 12,3   Ciel entre 5/8 et 8/8 le matin, averses, 5/8 à 2/8 ensuite  
28/09/2012 20,6 7,4 13,70 14,00 13,69 20,1 13,52 7,4 13,2 20,3 7,4 13,85 99% 53% 82,1% 76,0% 13,4 7,0 10,40 15,78 5,91 SE 30,6 S 8,14 0,2 0,1 12,0 1020,2 1018,2 1019,08 1019,20 2,0   Brouillard, ciel entre 3/8 et 6/8 le matin, 6/8 à 3/8 l'après-midi  
29/09/2012 19,5 6,8 13,49 13,15 13,31 19,1 12,65 6,4 12,7 19,4 6,9 13,15 98% 52% 78,0% 75,0% 12,7 6,0 9,39 23,95 10,52 N 37,0 NNE 14,02 0,2 0,1 12,0 1023,0 1019,0 1020,58 1021,00 4,0   Ciel entre 5/8 et 6/8  
30/09/2012 19,3 7,3 12,37 13,30 12,17 18,5 11,48 5,4 12,0 19,3 7,3 13,30 92% 48% 77,4% 70,0% 10,4 5,9 8,18 16,74 9,64 N 33,8 NNE 12,94 0,0 0,0 0,0 1024,2 1021,5 1022,70 1022,85 2,7   Ciel 0/8 à 2/8  
                                                                         
  Température (°C) - Abri Young à ventilation mécanique 43502 Humidité Vent (km/h) Précipitations (mm) Pression (hPa) Divers  
  Maxi Mini Moy de 1440 relevés Moy (tx+tn)/2 Index chaleur moyen Index chaleur maxi Froid dû au vent moy  Froid dû au vent mini/1min   Amplitude (Tx-Tn) Tx OMM/1min Tn OMM/1min Tm OMM/1min Relative maxi Relative mini Relative moy de 1440 relevés Relative moy (hx+hn)/2 Point de rosée maxi Point de rosée mini Point de rosée moy 1440 relevés Vent moy maxi (10min) Vent  moyen (24h) Direction dominante Rafales (km/h) maxi Direction rafale maxi Rafales moy (24h) Total du jour (mm) Durée en heures et dixièmes Intensité maxi sur 1 min (mm/h) Maxi Mini Moy de 1440 relevés Moy (px+pn)/2 Variation Epaisseur neige (cm) Remarques diverses  
Maxi 31,8 15,2 21,11 22,05 21,55 30,2 20,54 15,1 23,1 31,7 15,2 22,00 99% 76% 91,6% 86,0% 19,1 13,4 16,27 60,52 34,55 N 78,9 W 43,52 18,6 6,0 60,0 1030,5 1027,1 1028,91 1028,80 14,2 0,0    
Mini 16,0 1,8 12,37 12,25 12,17 16,0 11,48 0,9 4,5 15,9 2,0 12,30 81% 22% 50,2% 51,5% 5,5 -1,4 2,68 14,18 4,83   22,5   6,88       1002,9 996,1 999,60 1000,15 1,7      
Moy 23,49 9,85 16,71 16,67 16,61 23,09 16,03 9,11 13,64 23,35 9,92 16,64 93,2% 49,7% 73,3% 71,5% 14,52 7,10 11,34 22,54 10,94   36,31   14,72       1020,25 1015,29 1017,74 1017,77 4,96      
Total                                                   57,8 12,7             0,0    
 
  Observations      
Jours Rafales >= 36,0 km/h Rafales >= 57,6 km/h Rafales >= 75,6 km/h Rafales >= 100,8 km/h Précipi. >= 0,1 mm Précipi. >= 1,0 mm Précipi. >= 5,0 mm Précipi. >= 10,0 mm Tx <= 0 Tx >= 25 Tx >= 30 Tx >= 35 Tx >= 40 Tn <= 0 Tn <= -5 Tn <= -10 Tn <= -15 T moy <= 0 T moy <=     -5 T moy >= 20 T moy >= 25 T moy >= 30 Grêle Grésil Brouillard Brume Orage Neige        
01/09/2012 1 0 0 0 0 0 0 0 0 0 0 0 0 0 0 0 0 0 0 0 0 0 0 0 0 0 0 0    
02/09/2012 0 0 0 0 0 0 0 0 0 0 0 0 0 0 0 0 0 0 0 0 0 0 0 0 0 0 0 0    
03/09/2012 0 0 0 0 0 0 0 0 0 1 0 0 0 0 0 0 0 0 0 0 0 0 0 0 0 0 0 0    
04/09/2012 0 0 0 0 0 0 0 0 0 1 0 0 0 0 0 0 0 0 0 1 0 0 0 0 0 0 0 0    
05/09/2012 0 0 0 0 0 0 0 0 0 1 0 0 0 0 0 0 0 0 0 1 0 0 0 0 0 0 0 0    
06/09/2012 1 0 0 0 0 0 0 0 0 1 0 0 0 0 0 0 0 0 0 1 0 0 0 0 0 0 0 0    
07/09/2012 0 0 0 0 0 0 0 0 0 1 1 0 0 0 0 0 0 0 0 1 0 0 0 0 0 0 0 0    
08/09/2012 0 0 0 0 0 0 0 0 0 1 1 0 0 0 0 0 0 0 0 1 0 0 0 0 0 0 0 0    
09/09/2012 0 0 0 0 0 0 0 0 0 1 0 0 0 0 0 0 0 0 0 0 0 0 0 0 1 0 0 0    
10/09/2012 0 0 0 0 1 0 0 0 0 1 0 0 0 0 0 0 0 0 0 0 0 0 0 0 0 0 0 0    
11/09/2012 1 0 0 0 1 0 0 0 0 0 0 0 0 0 0 0 0 0 0 0 0 0 0 0 0 0 0 0    
12/09/2012 0 0 0 0 0 0 0 0 0 0 0 0 0 0 0 0 0 0 0 0 0 0 0 0 0 0 0 0    
13/09/2012 1 0 0 0 1 1 0 0 0 0 0 0 0 0 0 0 0 0 0 0 0 0 0 0 0 0 0 0    
14/09/2012 1 0 0 0 0 0 0 0 0 0 0 0 0 0 0 0 0 0 0 0 0 0 0 0 0 0 0 0    
15/09/2012 0 0 0 0 0 0 0 0 0 0 0 0 0 0 0 0 0 0 0 0 0 0 0 0 0 0 0 0    
16/09/2012 0 0 0 0 0 0 0 0 0 1 0 0 0 0 0 0 0 0 0 0 0 0 0 0 0 0 0 0    
17/09/2012 0 0 0 0 0 0 0 0 0 0 0 0 0 0 0 0 0 0 0 0 0 0 0 0 0 0 0 0    
18/09/2012 0 0 0 0 0 0 0 0 0 0 0 0 0 0 0 0 0 0 0 0 0 0 0 0 0 0 0 0    
19/09/2012 0 0 0 0 0 0 0 0 0 0 0 0 0 0 0 0 0 0 0 0 0 0 0 0 0 0 0 0    
20/09/2012 0 0 0 0 0 0 0 0 0 0 0 0 0 0 0 0 0 0 0 0 0 0 0 0 0 0 0 0    
21/09/2012 0 0 0 0 1 1 0 0 0 0 0 0 0 0 0 0 0 0 0 0 0 0 0 0 0 0 0 0    
22/09/2012 0 0 0 0 0 0 0 0 0 0 0 0 0 0 0 0 0 0 0 0 0 0 0 0 0 0 0 0    
23/09/2012 1 1 0 0 1 0 0 0 0 1 0 0 0 0 0 0 0 0 0 1 0 0 0 0 0 0 0 0    
24/09/2012 1 1 1 0 1 1 1 1 0 0 0 0 0 0 0 0 0 0 0 0 0 0 0 0 0 0 1 0    
25/09/2012 1 0 0 0 1 1 1 1 0 0 0 0 0 0 0 0 0 0 0 0 0 0 0 0 0 0 1 0    
26/09/2012 1 0 0 0 1 1 1 1 0 0 0 0 0 0 0 0 0 0 0 0 0 0 0 0 0 0 0 0    
27/09/2012 1 0 0 0 1 1 0 0 0 0 0 0 0 0 0 0 0 0 0 0 0 0 0 0 0 0 0 0    
28/09/2012 0 0 0 0 1 0 0 0 0 0 0 0 0 0 0 0 0 0 0 0 0 0 0 0 1 0 0 0    
29/09/2012 1 0 0 0 1 0 0 0 0 0 0 0 0 0 0 0 0 0 0 0 0 0 0 0 0 0 0 0    
30/09/2012 0 0 0 0 0 0 0 0 0 0 0 0 0 0 0 0 0 0 0 0 0 0 0 0 0 0 0 0    
                                                             
   
  Rafales >= 36,0 km/h Rafales >= 57,6 km/h Rafales >= 75,6 km/h Rafales >= 100,8 km/h Précipi. >= 0,1 mm Précipi. >= 1,0 mm Précipi. >= 5,0 mm Précipi. >= 10,0 mm Tx <=0 Tx >= 25 Tx >= 30 Tx >= 35 Tx >= 40 Tn <= 0 Tn <= -5 Tn <= -10 Tn <= -15 T moy <= 0 T moy <=  -5 T moy >= 20 T moy >= 25 T moy >= 30 Grêle Grésil Brouillard Brume Orage Neige        
Total 11 2 1 0 11 6 3 3 0 10 2 0 0 0 0 0 0 0 0 6 0 0 0 0 2 0 2 0